createdAt,value
2023-04-06T00:01:26.368Z,80.55
2023-04-06T00:03:27.988Z,80.67
2023-04-06T00:05:31.571Z,80.51
2023-04-06T00:07:34.396Z,80.71
2023-04-06T00:09:35.925Z,80.59
2023-04-06T00:11:37.450Z,80.59
2023-04-06T00:13:38.989Z,80.76
2023-04-06T00:15:40.516Z,80.48
2023-04-06T00:17:42.073Z,80.56
2023-04-06T00:19:43.600Z,80.36
2023-04-06T00:21:45.185Z,80.85
2023-04-06T00:23:46.746Z,80.73
2023-04-06T00:25:48.264Z,80.69
2023-04-06T00:27:49.806Z,80.79
2023-04-06T00:30:13.234Z,80.72
2023-04-06T00:32:14.881Z,80.98
2023-04-06T00:34:17.036Z,81.26
2023-04-06T00:36:18.687Z,80.84
2023-04-06T00:38:20.241Z,81.25
2023-04-06T00:40:21.787Z,80.76
2023-04-06T00:42:26.878Z,80.88
2023-04-06T00:44:28.714Z,80.96
2023-04-06T00:46:30.569Z,81.09
2023-04-06T00:48:32.437Z,81.53
2023-04-06T00:50:34.401Z,81.27
2023-04-06T00:52:36.732Z,81.15
2023-04-06T00:54:38.325Z,81.18
2023-04-06T00:56:39.941Z,80.91
2023-04-06T00:58:41.704Z,80.96
2023-04-06T01:00:43.562Z,80.63
2023-04-06T01:02:46.281Z,81.10
2023-04-06T01:04:48.143Z,81.19
2023-04-06T01:06:51.009Z,81.05
2023-04-06T01:08:52.547Z,81.22
2023-04-06T01:10:54.037Z,81.37
2023-04-06T01:12:55.755Z,81.29
2023-04-06T01:14:57.456Z,81.08
2023-04-06T01:17:01.108Z,80.90
2023-04-06T01:19:08.883Z,81.39
2023-04-06T01:21:16.331Z,81.40
2023-04-06T01:23:17.901Z,81.30
2023-04-06T01:25:19.414Z,80.81
2023-04-06T01:27:21.339Z,81.39
2023-04-06T01:29:22.980Z,80.80
2023-04-06T01:31:25.600Z,81.53
2023-04-06T01:33:27.164Z,81.50
2023-04-06T01:35:29.356Z,80.79
2023-04-06T01:37:33.134Z,81.11
2023-04-06T01:39:34.678Z,81.22
2023-04-06T01:41:36.259Z,80.89
2023-04-06T01:43:37.805Z,80.70
2023-04-06T01:45:39.348Z,80.54
2023-04-06T01:47:41.303Z,80.55
2023-04-06T01:49:42.844Z,80.55
2023-04-06T01:51:44.383Z,80.78
2023-04-06T01:53:46.073Z,80.83
2023-04-06T01:55:47.962Z,80.83
2023-04-06T01:57:49.555Z,80.81
2023-04-06T01:59:51.293Z,81.11
2023-04-06T02:01:52.853Z,80.98
2023-04-06T02:03:54.402Z,80.78
2023-04-06T02:05:56.107Z,81.15
2023-04-06T02:07:58.095Z,80.49
2023-04-06T02:09:59.702Z,80.79
2023-04-06T02:12:02.429Z,80.57
2023-04-06T02:14:04.088Z,80.33
2023-04-06T02:16:06.368Z,80.98
2023-04-06T02:18:08.011Z,80.89
2023-04-06T02:20:10.231Z,80.65
2023-04-06T02:22:11.815Z,80.57
2023-04-06T02:24:13.582Z,80.94
2023-04-06T02:26:15.651Z,80.27
2023-04-06T02:28:17.173Z,80.92
2023-04-06T02:30:18.849Z,80.42
2023-04-06T02:32:20.730Z,80.85
2023-04-06T02:34:22.296Z,80.44
2023-04-06T02:36:23.793Z,80.53
2023-04-06T02:38:25.615Z,80.48
2023-04-06T02:40:27.186Z,80.58
2023-04-06T02:42:28.668Z,80.27
2023-04-06T02:44:30.450Z,80.74
2023-04-06T02:46:32.027Z,80.60
2023-04-06T02:48:37.009Z,80.46
2023-04-06T02:50:38.595Z,80.29
2023-04-06T02:52:40.135Z,79.95
2023-04-06T02:54:41.708Z,80.29
2023-04-06T02:56:43.304Z,80.30
2023-04-06T02:58:44.816Z,80.10
2023-04-06T03:00:46.450Z,80.41
2023-04-06T03:02:48.173Z,80.32
2023-04-06T03:04:49.813Z,80.07
2023-04-06T03:06:51.330Z,80.20
2023-04-06T03:08:52.862Z,80.13
2023-04-06T03:10:54.723Z,80.57
2023-04-06T03:12:56.289Z,80.17
2023-04-06T03:14:57.785Z,80.16
2023-04-06T03:16:59.333Z,79.96
2023-04-06T03:19:00.967Z,80.35
2023-04-06T03:21:02.571Z,79.76
2023-04-06T03:23:04.079Z,79.84
2023-04-06T03:25:06.162Z,79.75
2023-04-06T03:27:07.736Z,79.63
2023-04-06T03:29:09.397Z,79.77
2023-04-06T03:31:11.384Z,79.94
2023-04-06T03:33:12.886Z,79.97
2023-04-06T03:35:14.484Z,79.89
2023-04-06T03:37:15.991Z,79.72
2023-04-06T03:39:17.575Z,79.98
2023-04-06T03:41:19.163Z,79.55
2023-04-06T03:43:20.774Z,79.37
2023-04-06T03:45:22.311Z,79.57
2023-04-06T03:47:23.932Z,79.70
2023-04-06T03:49:25.520Z,79.49
2023-04-06T03:51:28.606Z,79.53
2023-04-06T03:53:30.137Z,79.16
2023-04-06T03:55:31.665Z,79.69
2023-04-06T03:57:33.241Z,79.19
2023-04-06T03:59:34.839Z,79.37
2023-04-06T04:01:36.503Z,79.46
2023-04-06T04:03:38.159Z,79.47
2023-04-06T04:05:39.675Z,79.14
2023-04-06T04:07:41.242Z,79.63
2023-04-06T04:09:42.733Z,79.05
2023-04-06T04:11:44.369Z,78.70
2023-04-06T04:13:45.959Z,78.80
2023-04-06T04:15:48.615Z,79.05
2023-04-06T04:17:50.484Z,79.22
2023-04-06T04:19:52.088Z,79.03
2023-04-06T04:21:53.716Z,78.69
2023-04-06T04:23:55.290Z,78.45
2023-04-06T04:25:56.806Z,78.51
2023-04-06T04:27:58.396Z,78.66
2023-04-06T04:29:59.896Z,78.84
2023-04-06T04:32:01.701Z,78.63
2023-04-06T04:34:03.281Z,78.85
2023-04-06T04:36:05.406Z,78.52
2023-04-06T04:38:07.267Z,78.72
2023-04-06T04:40:09.492Z,78.48
2023-04-06T04:42:11.427Z,78.62
2023-04-06T04:44:13.174Z,78.77
2023-04-06T04:46:14.775Z,78.31
2023-04-06T04:48:16.495Z,78.35
2023-04-06T04:50:18.215Z,78.54
2023-04-06T04:52:19.788Z,78.59
2023-04-06T04:54:21.338Z,78.30
2023-04-06T04:56:22.962Z,78.55
2023-04-06T04:58:24.495Z,78.45
2023-04-06T05:00:26.800Z,78.15
2023-04-06T05:02:28.541Z,78.12
2023-04-06T05:04:30.168Z,78.20
2023-04-06T05:06:32.012Z,78.20
2023-04-06T05:08:33.522Z,78.24
2023-04-06T05:10:36.382Z,77.87
2023-04-06T05:12:38.689Z,78.04
2023-04-06T05:14:40.768Z,77.94
2023-04-06T05:16:42.347Z,78.03
2023-04-06T05:18:44.021Z,77.76
2023-04-06T05:20:45.589Z,77.48
2023-04-06T05:22:50.336Z,77.64
2023-04-06T05:24:51.902Z,77.34
2023-04-06T05:26:59.833Z,77.33
2023-04-06T05:29:02.000Z,77.20
2023-04-06T05:31:03.724Z,76.81
2023-04-06T05:33:08.059Z,76.92
2023-04-06T05:35:10.070Z,76.90
2023-04-06T05:37:11.616Z,77.17
2023-04-06T05:39:14.112Z,77.03
2023-04-06T05:41:15.621Z,77.06
2023-04-06T05:43:17.126Z,77.10
2023-04-06T05:45:19.534Z,76.71
2023-04-06T05:47:21.132Z,76.70
2023-04-06T05:49:22.668Z,76.55
2023-04-06T05:51:24.289Z,76.09
2023-04-06T05:53:27.506Z,76.26
2023-04-06T05:55:29.096Z,76.36
2023-04-06T05:57:30.685Z,75.66
2023-04-06T05:59:32.623Z,76.04
2023-04-06T06:01:35.807Z,75.81
2023-04-06T06:03:37.386Z,75.22
2023-04-06T06:05:38.916Z,75.56
2023-04-06T06:07:40.478Z,75.16
2023-04-06T06:09:42.059Z,75.46
2023-04-06T06:11:43.625Z,75.39
2023-04-06T06:13:45.211Z,75.07
2023-04-06T06:15:47.117Z,75.43
2023-04-06T06:17:48.652Z,75.40
2023-04-06T06:19:50.300Z,74.69
2023-04-06T06:21:51.874Z,74.77
2023-04-06T06:23:55.034Z,75.01
2023-04-06T06:25:58.917Z,74.73
2023-04-06T06:28:00.688Z,74.40
2023-04-06T06:30:02.924Z,74.53
2023-04-06T06:32:04.681Z,74.74
2023-04-06T06:34:06.489Z,74.49
2023-04-06T06:36:08.182Z,74.25
2023-04-06T06:38:09.703Z,74.22
2023-04-06T06:40:14.027Z,74.21
2023-04-06T06:42:15.777Z,74.75
2023-04-06T06:44:17.743Z,74.70
2023-04-06T06:46:19.352Z,74.08
2023-04-06T06:48:21.120Z,73.97
2023-04-06T06:50:22.662Z,74.54
2023-04-06T06:52:25.101Z,74.29
2023-04-06T06:54:26.642Z,73.79
2023-04-06T06:56:28.953Z,74.08
2023-04-06T06:58:30.631Z,73.87
2023-04-06T07:00:32.140Z,74.00
2023-04-06T07:02:35.317Z,73.55
2023-04-06T07:04:36.884Z,73.82
2023-04-06T07:06:38.508Z,73.90
2023-04-06T07:08:40.073Z,73.26
2023-04-06T07:10:41.602Z,73.45
2023-04-06T07:12:43.169Z,73.15
2023-04-06T07:14:44.789Z,73.08
2023-04-06T07:16:47.898Z,73.19
2023-04-06T07:18:49.564Z,72.83
2023-04-06T07:20:51.261Z,73.05
2023-04-06T07:22:52.861Z,72.48
2023-04-06T07:24:56.372Z,72.30
2023-04-06T07:27:01.549Z,72.50
2023-04-06T07:29:03.056Z,72.47
2023-04-06T07:31:04.615Z,72.90
2023-04-06T07:33:06.809Z,73.18
2023-04-06T07:35:08.507Z,72.70
2023-04-06T07:37:10.000Z,72.65
2023-04-06T07:39:11.709Z,72.35
2023-04-06T07:41:13.223Z,71.98
2023-04-06T07:43:14.716Z,71.98
2023-04-06T07:45:16.925Z,71.52
2023-04-06T07:47:18.419Z,71.84
2023-04-06T07:49:21.711Z,71.63
2023-04-06T07:51:23.241Z,71.53
2023-04-06T07:53:25.060Z,71.14
2023-04-06T07:55:26.565Z,70.39
2023-04-06T07:57:28.083Z,69.72
2023-04-06T07:59:29.662Z,69.78
2023-04-06T08:01:31.533Z,68.86
2023-04-06T08:03:35.808Z,69.02
2023-04-06T08:05:37.393Z,68.05
2023-04-06T08:07:38.968Z,67.21
2023-04-06T08:09:40.628Z,66.82
2023-04-06T08:11:42.233Z,66.21
2023-04-06T08:13:43.786Z,66.34
2023-04-06T08:15:45.452Z,65.82
2023-04-06T08:17:47.145Z,64.29
2023-04-06T08:19:48.746Z,65.13
2023-04-06T08:21:50.405Z,63.71
2023-04-06T08:23:51.962Z,64.42
2023-04-06T08:25:55.210Z,64.27
2023-04-06T08:27:57.117Z,64.02
2023-04-06T08:29:58.626Z,64.23
2023-04-06T08:32:00.177Z,64.50
2023-04-06T08:34:02.781Z,63.82
2023-04-06T08:36:12.437Z,63.58
2023-04-06T08:38:13.997Z,63.37
2023-04-06T08:40:16.119Z,64.11
2023-04-06T08:42:21.899Z,63.61
2023-04-06T08:44:24.207Z,62.39
2023-04-06T08:46:30.750Z,61.84
2023-04-06T08:48:34.360Z,60.42
2023-04-06T08:50:37.054Z,59.49
2023-04-06T08:52:39.184Z,60.11
2023-04-06T08:54:40.762Z,60.95
2023-04-06T08:56:43.320Z,59.79
2023-04-06T08:58:46.283Z,59.29
2023-04-06T09:00:48.349Z,59.37
2023-04-06T09:02:51.095Z,58.56
2023-04-06T09:04:54.685Z,58.58
2023-04-06T09:06:56.370Z,59.09
2023-04-06T09:08:59.057Z,58.59
2023-04-06T09:11:02.150Z,58.14
2023-04-06T09:13:07.989Z,58.51
2023-04-06T09:15:21.567Z,58.52
2023-04-06T09:17:27.148Z,58.51
2023-04-06T09:19:28.794Z,58.84
2023-04-06T09:21:30.286Z,57.46
2023-04-06T09:23:32.356Z,56.93
2023-04-06T09:25:33.972Z,58.62
2023-04-06T09:27:37.361Z,58.54
2023-04-06T09:29:38.970Z,56.67
2023-04-06T09:31:40.641Z,56.07
2023-04-06T09:33:46.848Z,57.06
2023-04-06T09:35:51.322Z,56.70
2023-04-06T09:37:53.713Z,57.43
2023-04-06T09:40:07.020Z,56.52
2023-04-06T09:42:09.232Z,57.00
2023-04-06T09:44:12.272Z,56.75
2023-04-06T09:46:14.895Z,56.75
2023-04-06T09:48:17.049Z,56.70
2023-04-06T09:50:20.624Z,55.35
2023-04-06T09:52:25.016Z,56.07
2023-04-06T09:54:30.579Z,54.17
2023-04-06T09:56:38.930Z,54.30
2023-04-06T09:58:44.260Z,54.41
2023-04-06T10:00:54.597Z,52.25
2023-04-06T10:03:04.327Z,52.62
2023-04-06T10:05:14.001Z,49.01
2023-04-06T10:07:16.668Z,48.79
2023-04-06T10:09:18.365Z,50.92
2023-04-06T10:11:20.239Z,50.42
2023-04-06T10:13:21.883Z,51.51
2023-04-06T10:15:23.570Z,50.75
2023-04-06T10:17:25.604Z,49.58
2023-04-06T10:19:34.572Z,51.05
2023-04-06T10:21:38.134Z,51.67
2023-04-06T10:23:49.275Z,49.32
2023-04-06T10:25:55.922Z,50.02
2023-04-06T10:28:06.909Z,52.10
2023-04-06T10:30:08.683Z,50.16
2023-04-06T10:32:10.350Z,52.02
2023-04-06T10:34:12.050Z,52.27
2023-04-06T10:36:15.669Z,52.11
2023-04-06T10:38:21.987Z,49.93
2023-04-06T10:40:27.323Z,46.96
2023-04-06T10:42:41.127Z,49.14
2023-04-06T10:44:46.550Z,50.21
2023-04-06T10:46:56.443Z,47.88
2023-04-06T10:48:58.849Z,46.39
2023-04-06T10:51:00.413Z,46.45
2023-04-06T10:53:03.808Z,48.27
2023-04-06T10:55:06.965Z,45.92
2023-04-06T10:57:08.489Z,45.50
2023-04-06T10:59:10.084Z,45.81
2023-04-06T11:01:12.638Z,44.95
2023-04-06T11:03:15.133Z,44.26
2023-04-06T11:05:16.714Z,40.19
2023-04-06T11:07:24.373Z,38.46
2023-04-06T11:09:29.269Z,37.92
2023-04-06T11:11:30.848Z,36.54
2023-04-06T11:13:43.867Z,37.04
2023-04-06T11:15:45.661Z,35.35
2023-04-06T11:17:47.219Z,38.31
2023-04-06T11:19:48.814Z,37.94
2023-04-06T11:21:50.706Z,33.72
2023-04-06T11:23:52.256Z,36.87
2023-04-06T11:25:55.073Z,34.68
2023-04-06T11:27:56.680Z,34.63
2023-04-06T11:29:58.606Z,36.83
2023-04-06T11:32:03.162Z,33.08
2023-04-06T11:34:10.627Z,33.50
2023-04-06T11:36:15.854Z,33.44
2023-04-06T11:38:21.047Z,34.93
2023-04-06T11:40:23.861Z,37.37
2023-04-06T11:42:30.462Z,35.17
2023-04-06T11:44:35.754Z,31.44
2023-04-06T11:46:37.453Z,36.86
2023-04-06T11:48:46.402Z,32.62
2023-04-06T11:50:49.660Z,30.22
2023-04-06T11:53:01.102Z,29.82
2023-04-06T11:55:15.820Z,30.17
2023-04-06T11:57:18.662Z,29.69
2023-04-06T11:59:21.115Z,33.26
2023-04-06T12:01:22.970Z,32.27
2023-04-06T12:03:24.593Z,28.23
2023-04-06T12:05:26.306Z,29.14
2023-04-06T12:07:27.966Z,30.43
2023-04-06T12:09:30.249Z,33.71
2023-04-06T12:11:31.920Z,28.04
2023-04-06T12:13:33.453Z,26.36
2023-04-06T12:15:35.057Z,30.46
2023-04-06T12:17:37.969Z,33.06
2023-04-06T12:19:39.541Z,28.55
2023-04-06T12:21:41.526Z,26.87
2023-04-06T12:23:43.052Z,27.20
2023-04-06T12:25:44.967Z,28.05
2023-04-06T12:27:46.661Z,28.10
2023-04-06T12:29:48.556Z,29.88
2023-04-06T12:31:50.203Z,26.52
2023-04-06T12:33:52.902Z,29.11
2023-04-06T12:35:54.428Z,35.90
2023-04-06T12:37:56.032Z,32.28
2023-04-06T12:39:57.579Z,32.80
2023-04-06T12:41:59.126Z,26.83
2023-04-06T12:44:00.821Z,26.51
2023-04-06T12:46:02.374Z,26.62
2023-04-06T12:48:04.055Z,27.12
2023-04-06T12:50:09.341Z,30.19
2023-04-06T12:52:12.149Z,28.43
2023-04-06T12:54:13.880Z,27.48
2023-04-06T12:56:18.331Z,27.20
2023-04-06T12:58:20.137Z,27.73
2023-04-06T13:00:22.210Z,34.99
2023-04-06T13:02:24.418Z,32.16
2023-04-06T13:04:26.042Z,26.97
2023-04-06T13:06:28.895Z,26.52
2023-04-06T13:08:30.852Z,34.21
2023-04-06T13:10:32.416Z,27.78
2023-04-06T13:12:33.907Z,39.75
2023-04-06T13:14:35.585Z,34.77
2023-04-06T13:16:37.318Z,35.71
2023-04-06T13:18:40.004Z,37.60
2023-04-06T13:20:42.340Z,35.11
2023-04-06T13:22:43.863Z,34.46
2023-04-06T13:24:45.420Z,38.72
2023-04-06T13:26:46.925Z,29.83
2023-04-06T13:28:48.835Z,32.00
2023-04-06T13:30:50.802Z,35.00
2023-04-06T13:32:52.731Z,30.91
2023-04-06T13:34:57.717Z,26.80
2023-04-06T13:36:59.255Z,32.66
2023-04-06T13:39:00.930Z,37.24
2023-04-06T13:41:02.472Z,37.80
2023-04-06T13:43:03.989Z,31.33
2023-04-06T13:45:06.043Z,31.49
2023-04-06T13:47:07.745Z,28.59
2023-04-06T13:49:09.328Z,29.13
2023-04-06T13:51:12.444Z,31.81
2023-04-06T13:53:14.581Z,31.34
2023-04-06T13:55:16.250Z,28.42
2023-04-06T13:57:17.890Z,27.97
2023-04-06T13:59:19.416Z,28.11
2023-04-06T14:01:21.324Z,29.93
2023-04-06T14:03:23.366Z,28.35
2023-04-06T14:05:24.977Z,31.74
2023-04-06T14:07:27.069Z,31.57
2023-04-06T14:09:29.633Z,31.23
2023-04-06T14:11:31.227Z,32.50
2023-04-06T14:13:32.694Z,30.87
2023-04-06T14:15:34.596Z,27.80
2023-04-06T14:17:36.290Z,27.81
2023-04-06T14:19:37.752Z,28.56
2023-04-06T14:21:40.312Z,35.10
2023-04-06T14:23:42.082Z,28.81
2023-04-06T14:25:43.765Z,28.34
2023-04-06T14:27:45.486Z,29.07
2023-04-06T14:29:46.925Z,34.45
2023-04-06T14:31:49.269Z,41.68
2023-04-06T14:33:50.751Z,44.67
2023-04-06T14:35:52.221Z,38.26
2023-04-06T14:37:53.715Z,37.78
2023-04-06T14:39:55.301Z,36.34
2023-04-06T14:41:56.854Z,39.02
2023-04-06T14:43:58.369Z,37.54
2023-04-06T14:46:03.388Z,29.42
2023-04-06T14:48:06.865Z,38.75
2023-04-06T14:50:09.039Z,45.95
2023-04-06T14:52:10.549Z,32.09
2023-04-06T14:54:12.068Z,30.22
2023-04-06T14:56:13.571Z,32.43
2023-04-06T14:58:15.003Z,34.41
2023-04-06T15:00:16.870Z,32.23
2023-04-06T15:02:18.636Z,33.65
2023-04-06T15:04:20.374Z,30.80
2023-04-06T15:06:22.469Z,39.28
2023-04-06T15:08:24.602Z,34.55
2023-04-06T15:10:26.153Z,31.72
2023-04-06T15:12:27.696Z,31.12
2023-04-06T15:14:29.176Z,32.58
2023-04-06T15:16:33.825Z,30.67
2023-04-06T15:18:36.438Z,31.07
2023-04-06T15:20:38.552Z,30.63
2023-04-06T15:22:40.378Z,31.28
2023-04-06T15:24:41.848Z,40.92
2023-04-06T15:26:43.345Z,40.87
2023-04-06T15:28:44.994Z,36.59
2023-04-06T15:30:46.508Z,35.67
2023-04-06T15:32:57.396Z,37.70
2023-04-06T15:35:00.664Z,31.50
2023-04-06T15:37:02.625Z,31.31
2023-04-06T15:39:04.878Z,30.72
2023-04-06T15:41:06.628Z,31.16
2023-04-06T15:43:08.097Z,31.74
2023-04-06T15:45:13.633Z,40.02
2023-04-06T15:47:15.449Z,46.84
2023-04-06T15:49:16.897Z,47.94
2023-04-06T15:51:18.377Z,38.73
2023-04-06T15:53:19.881Z,34.78
2023-04-06T15:55:21.491Z,39.31
2023-04-06T15:57:22.956Z,40.86
2023-04-06T15:59:24.424Z,42.55
2023-04-06T16:01:26.160Z,35.50
2023-04-06T16:03:28.548Z,32.10
2023-04-06T16:05:34.599Z,38.27
2023-04-06T16:07:38.303Z,45.55
2023-04-06T16:09:39.802Z,44.05
2023-04-06T16:11:41.311Z,47.86
2023-04-06T16:13:45.062Z,42.39
2023-04-06T16:15:52.351Z,45.46
2023-04-06T16:17:54.029Z,46.33
2023-04-06T16:19:55.630Z,40.15
2023-04-06T16:21:57.758Z,42.10
2023-04-06T16:23:59.899Z,47.93
2023-04-06T16:26:01.942Z,47.62
2023-04-06T16:28:03.433Z,45.88
2023-04-06T16:30:05.804Z,44.79
2023-04-06T16:32:07.619Z,49.61
2023-04-06T16:34:09.221Z,52.25
2023-04-06T16:36:11.638Z,51.48
2023-04-06T16:38:14.566Z,50.86
2023-04-06T16:40:16.461Z,48.28
2023-04-06T16:42:20.413Z,47.88
2023-04-06T16:44:21.913Z,47.23
2023-04-06T16:46:33.566Z,50.65
2023-04-06T16:48:35.156Z,50.94
2023-04-06T16:50:36.704Z,52.73
2023-04-06T16:52:38.176Z,54.00
2023-04-06T16:54:39.688Z,53.64
2023-04-06T16:56:41.159Z,51.77
2023-04-06T16:58:42.622Z,52.33
2023-04-06T17:00:45.256Z,47.11
2023-04-06T17:02:47.723Z,51.04
2023-04-06T17:04:49.325Z,52.81
2023-04-06T17:06:51.401Z,47.00
2023-04-06T17:08:53.983Z,52.06
2023-04-06T17:10:59.595Z,53.31
2023-04-06T17:13:06.222Z,54.88
2023-04-06T17:15:08.375Z,55.62
2023-04-06T17:17:10.121Z,58.45
2023-04-06T17:19:11.688Z,60.08
2023-04-06T17:21:17.057Z,59.90
2023-04-06T17:23:18.659Z,60.56
2023-04-06T17:25:21.312Z,60.87
2023-04-06T17:27:23.626Z,61.41
2023-04-06T17:29:25.252Z,62.82
2023-04-06T17:31:27.204Z,63.02
2023-04-06T17:33:29.361Z,63.26
2023-04-06T17:35:31.969Z,63.23
2023-04-06T17:37:33.704Z,63.62
2023-04-06T17:39:35.693Z,63.90
2023-04-06T17:41:38.368Z,64.01
2023-04-06T17:43:40.165Z,64.35
2023-04-06T17:45:41.875Z,64.96
2023-04-06T17:47:43.399Z,65.15
2023-04-06T17:49:44.986Z,65.26
2023-04-06T17:51:46.918Z,65.36
2023-04-06T17:53:48.649Z,65.55
2023-04-06T17:55:50.344Z,66.32
2023-04-06T17:57:52.015Z,66.16
2023-04-06T17:59:54.358Z,67.02
2023-04-06T18:01:56.232Z,67.31
2023-04-06T18:03:57.783Z,67.29
2023-04-06T18:06:15.181Z,66.88
2023-04-06T18:08:16.914Z,67.47
2023-04-06T18:10:18.938Z,67.75
2023-04-06T18:12:20.606Z,62.33
2023-04-06T18:14:22.335Z,50.23
2023-04-06T18:16:23.954Z,52.04
2023-04-06T18:18:26.048Z,61.93
2023-04-06T18:20:27.543Z,66.37
2023-04-06T18:22:29.093Z,68.76
2023-04-06T18:24:41.501Z,69.24
2023-04-06T18:26:43.935Z,70.16
2023-04-06T18:28:46.569Z,70.76
2023-04-06T18:30:48.494Z,70.54
2023-04-06T18:32:50.596Z,70.40
2023-04-06T18:34:52.123Z,70.40
2023-04-06T18:36:53.690Z,70.42
2023-04-06T18:38:55.418Z,69.86
2023-04-06T18:40:57.034Z,70.19
2023-04-06T18:42:58.567Z,70.87
2023-04-06T18:45:00.634Z,70.77
2023-04-06T18:47:02.185Z,70.35
2023-04-06T18:49:05.014Z,70.20
2023-04-06T18:51:06.493Z,70.33
2023-04-06T18:53:07.966Z,71.05
2023-04-06T18:55:09.608Z,71.54
2023-04-06T18:57:11.377Z,70.97
2023-04-06T18:59:13.971Z,71.18
2023-04-06T19:01:27.678Z,71.43
2023-04-06T19:03:29.424Z,71.12
2023-04-06T19:05:31.103Z,70.54
2023-04-06T19:07:34.279Z,70.80
2023-04-06T19:09:35.780Z,70.87
2023-04-06T19:11:37.251Z,71.56
2023-04-06T19:13:39.114Z,71.59
2023-04-06T19:15:43.942Z,71.47
2023-04-06T19:17:45.704Z,72.02
2023-04-06T19:19:47.202Z,71.18
2023-04-06T19:21:48.837Z,71.98
2023-04-06T19:23:52.817Z,72.01
2023-04-06T19:25:56.271Z,71.92
2023-04-06T19:27:58.376Z,72.40
2023-04-06T19:30:00.481Z,72.73
2023-04-06T19:32:02.489Z,73.86
2023-04-06T19:34:04.927Z,73.46
2023-04-06T19:36:07.900Z,73.15
2023-04-06T19:38:09.384Z,73.76
2023-04-06T19:40:11.012Z,73.02
2023-04-06T19:42:12.555Z,73.45
2023-04-06T19:44:14.085Z,73.02
2023-04-06T19:46:15.783Z,73.59
2023-04-06T19:48:17.460Z,72.79
2023-04-06T19:50:19.005Z,73.51
2023-04-06T19:52:21.702Z,73.93
2023-04-06T19:54:23.967Z,74.56
2023-04-06T19:56:26.072Z,74.41
2023-04-06T19:58:27.554Z,74.01
2023-04-06T20:00:29.193Z,73.89
2023-04-06T20:02:30.816Z,73.65
2023-04-06T20:04:32.398Z,73.71
2023-04-06T20:06:33.933Z,73.49
2023-04-06T20:08:35.639Z,73.72
2023-04-06T20:10:37.171Z,73.85
2023-04-06T20:12:39.230Z,73.76
2023-04-06T20:14:40.880Z,73.87
2023-04-06T20:16:42.472Z,73.68
2023-04-06T20:18:44.010Z,73.79
2023-04-06T20:20:45.518Z,73.59
2023-04-06T20:22:49.987Z,73.76
2023-04-06T20:24:51.658Z,74.49
2023-04-06T20:26:53.227Z,73.44
2023-04-06T20:28:54.754Z,74.05
2023-04-06T20:30:56.325Z,73.71
2023-04-06T20:32:57.914Z,73.60
2023-04-06T20:34:59.364Z,73.90
2023-04-06T20:37:00.881Z,74.01
2023-04-06T20:39:02.419Z,74.48
2023-04-06T20:41:03.974Z,73.94
2023-04-06T20:43:05.942Z,73.33
2023-04-06T20:45:07.888Z,74.04
2023-04-06T20:47:09.368Z,74.20
2023-04-06T20:49:11.149Z,73.50
2023-04-06T20:51:20.390Z,73.46
2023-04-06T20:53:22.071Z,73.99
2023-04-06T20:55:23.571Z,73.84
2023-04-06T20:57:25.700Z,70.23
2023-04-06T20:59:28.062Z,59.20
2023-04-06T21:01:29.658Z,64.15
2023-04-06T21:03:31.330Z,71.75
2023-04-06T21:05:33.026Z,68.51
2023-04-06T21:07:34.481Z,61.06
2023-04-06T21:09:40.803Z,71.34
2023-04-06T21:11:42.328Z,74.15
2023-04-06T21:13:43.823Z,74.44
2023-04-06T21:15:45.365Z,74.72
2023-04-06T21:17:46.896Z,74.75
2023-04-06T21:19:48.614Z,75.26
2023-04-06T21:21:50.810Z,75.44
2023-04-06T21:23:55.498Z,76.13
2023-04-06T21:25:57.584Z,75.57
2023-04-06T21:27:59.071Z,75.50
2023-04-06T21:30:00.660Z,75.43
2023-04-06T21:32:02.390Z,75.56
2023-04-06T21:34:08.635Z,75.30
2023-04-06T21:36:10.148Z,75.06
2023-04-06T21:38:11.756Z,74.97
2023-04-06T21:40:13.415Z,75.23
2023-04-06T21:42:14.912Z,75.20
2023-04-06T21:44:16.568Z,75.69
2023-04-06T21:46:18.028Z,75.82
2023-04-06T21:48:19.680Z,75.41
2023-04-06T21:50:21.167Z,75.50
2023-04-06T21:52:22.616Z,75.12
2023-04-06T21:54:24.145Z,75.21
2023-04-06T21:56:26.344Z,75.41
2023-04-06T21:58:27.818Z,74.92
2023-04-06T22:00:29.289Z,75.32
2023-04-06T22:02:32.148Z,75.05
2023-04-06T22:04:33.990Z,75.26
2023-04-06T22:06:36.792Z,75.20
2023-04-06T22:08:38.365Z,75.07
2023-04-06T22:10:40.702Z,75.06
2023-04-06T22:12:42.193Z,74.43
2023-04-06T22:14:43.681Z,74.65
2023-04-06T22:16:45.496Z,74.85
2023-04-06T22:18:47.008Z,74.46
2023-04-06T22:20:48.660Z,74.84
2023-04-06T22:22:50.269Z,74.87
2023-04-06T22:24:52.241Z,74.63
2023-04-06T22:26:53.702Z,74.88
2023-04-06T22:28:55.422Z,75.00
2023-04-06T22:30:56.887Z,74.86
2023-04-06T22:32:58.560Z,74.77
2023-04-06T22:35:00.156Z,75.13
2023-04-06T22:37:01.676Z,74.39
2023-04-06T22:39:03.174Z,74.64
2023-04-06T22:41:06.048Z,74.57
2023-04-06T22:43:08.889Z,74.86
2023-04-06T22:45:10.859Z,74.77
2023-04-06T22:47:12.456Z,75.29
2023-04-06T22:49:13.977Z,74.54
2023-04-06T22:51:15.473Z,74.22
2023-04-06T22:53:16.958Z,74.63
2023-04-06T22:55:18.520Z,74.71
2023-04-06T22:57:20.213Z,74.68
2023-04-06T22:59:21.741Z,74.88
2023-04-06T23:01:23.314Z,75.11
2023-04-06T23:03:25.057Z,75.04
2023-04-06T23:05:26.695Z,74.98
2023-04-06T23:07:28.192Z,75.07
2023-04-06T23:09:29.812Z,75.43
2023-04-06T23:11:31.327Z,75.57
2023-04-06T23:13:32.812Z,75.33
2023-04-06T23:15:34.380Z,76.00
2023-04-06T23:17:36.108Z,75.78
2023-04-06T23:19:37.701Z,76.50
2023-04-06T23:21:39.267Z,76.39
2023-04-06T23:23:40.841Z,76.12
2023-04-06T23:25:42.360Z,75.88
2023-04-06T23:27:44.092Z,75.70
2023-04-06T23:29:45.665Z,75.54
2023-04-06T23:31:47.177Z,76.03
2023-04-06T23:33:48.798Z,76.29
2023-04-06T23:35:51.134Z,76.01
2023-04-06T23:37:52.572Z,75.96
2023-04-06T23:39:54.055Z,76.24
2023-04-06T23:41:55.783Z,76.24
2023-04-06T23:43:57.410Z,76.02
2023-04-06T23:45:59.105Z,76.03
2023-04-06T23:48:00.657Z,76.26
2023-04-06T23:50:02.183Z,75.80
2023-04-06T23:52:03.833Z,75.96
2023-04-06T23:54:05.332Z,76.50
2023-04-06T23:56:07.381Z,76.14
2023-04-06T23:58:08.853Z,76.85
